createdAt,value
2022-09-28T00:02:46.564Z,12.06
2022-09-28T00:17:52.315Z,12.19
2022-09-28T00:32:57.816Z,12.19
2022-09-28T00:48:03.562Z,12.00
2022-09-28T01:03:10.174Z,12.00
2022-09-28T01:18:22.318Z,11.94
2022-09-28T01:33:32.946Z,11.81
2022-09-28T01:48:47.647Z,11.69
2022-09-28T02:03:57.430Z,11.75
2022-09-28T02:19:04.516Z,11.75
2022-09-28T02:34:10.878Z,11.69
2022-09-28T02:49:28.245Z,11.88
2022-09-28T03:04:41.276Z,11.88
2022-09-28T03:19:46.801Z,11.88
2022-09-28T03:34:52.395Z,11.88
2022-09-28T03:49:57.890Z,11.69
2022-09-28T04:05:03.525Z,11.69
2022-09-28T04:20:10.506Z,11.75
2022-09-28T04:35:16.382Z,11.69
2022-09-28T04:50:22.029Z,11.81
2022-09-28T05:05:27.770Z,11.63
2022-09-28T05:20:33.663Z,11.88
2022-09-28T05:35:39.759Z,11.75
2022-09-28T05:50:45.336Z,11.81
2022-09-28T06:05:50.949Z,11.88
2022-09-28T06:20:56.864Z,11.88
2022-09-28T06:36:03.045Z,12.06
2022-09-28T06:51:09.382Z,12.19
2022-09-28T07:06:15.225Z,12.19
2022-09-28T07:21:29.098Z,12.25
2022-09-28T07:36:36.712Z,12.31
2022-09-28T07:51:43.842Z,12.44
2022-09-28T08:06:49.564Z,12.38
2022-09-28T08:21:55.194Z,12.31
2022-09-28T08:37:00.921Z,12.56
2022-09-28T08:52:13.564Z,12.56
2022-09-28T09:07:55.913Z,12.81
2022-09-28T09:23:05.297Z,12.94
2022-09-28T09:38:27.376Z,13.00
2022-09-28T09:53:39.104Z,12.94
2022-09-28T10:08:48.966Z,12.75
2022-09-28T10:23:58.577Z,12.88
2022-09-28T10:39:06.339Z,12.69
2022-09-28T10:54:18.544Z,12.88
2022-09-28T11:09:31.200Z,12.75
2022-09-28T11:24:37.125Z,12.81
2022-09-28T11:39:52.033Z,12.63
2022-09-28T11:55:03.599Z,12.69
2022-09-28T12:10:16.211Z,12.63
2022-09-28T12:25:24.733Z,12.56
2022-09-28T12:40:39.555Z,12.81
2022-09-28T12:55:56.716Z,12.69
2022-09-28T13:11:16.088Z,12.75
2022-09-28T13:26:28.373Z,12.56
2022-09-28T13:41:35.041Z,12.88
2022-09-28T13:56:51.142Z,12.88
2022-09-28T14:12:02.062Z,12.81
2022-09-28T14:27:40.536Z,13.00
2022-09-28T14:43:24.581Z,12.81
2022-09-28T14:58:34.031Z,12.94
2022-09-28T15:13:41.132Z,12.88
2022-09-28T15:28:47.511Z,12.63
2022-09-28T15:44:08.788Z,12.63
2022-09-28T15:59:28.062Z,12.63
2022-09-28T16:14:34.032Z,12.44
2022-09-28T16:29:41.539Z,12.38
2022-09-28T16:44:47.095Z,12.25
2022-09-28T16:59:52.937Z,12.31
2022-09-28T17:15:00.696Z,12.25
2022-09-28T17:30:08.082Z,12.19
2022-09-28T17:45:13.964Z,12.19
2022-09-28T18:00:19.979Z,12.13
2022-09-28T18:15:25.898Z,11.94
2022-09-28T18:30:31.660Z,11.94
2022-09-28T18:45:37.863Z,11.88
2022-09-28T19:00:44.696Z,11.75
2022-09-28T19:15:50.511Z,11.88
2022-09-28T19:31:00.177Z,12.00
2022-09-28T19:46:08.724Z,11.94
2022-09-28T20:01:14.662Z,11.94
2022-09-28T20:16:24.781Z,11.88
2022-09-28T20:31:30.455Z,11.88
2022-09-28T20:46:37.086Z,11.94
2022-09-28T21:01:43.211Z,11.94
2022-09-28T21:16:48.841Z,11.75
2022-09-28T21:31:54.633Z,11.81
2022-09-28T21:47:00.377Z,11.81
2022-09-28T22:02:07.626Z,11.63
2022-09-28T22:17:13.250Z,11.75
2022-09-28T22:32:18.738Z,11.88
2022-09-28T22:47:24.322Z,11.75
2022-09-28T23:02:29.975Z,11.56
2022-09-28T23:17:35.736Z,11.69
2022-09-28T23:32:41.257Z,11.63
2022-09-28T23:47:46.795Z,11.56
